Time;durP1;ratioP1;P1;durP2;ratioP2;P2;SDS_P1;SDS_P2;PMS_P1;PMS_P2;Temp;Humidity;BMP_temperature;BMP_pressure;BME280_temperature;BME280_humidity;BME280_pressure;Samples;Min_cycle;Max_cycle;Signal;HPM_P1;HPM_P2
2024/01/04 00:01:17;;;;;;;14.05;10.07;;;;;;;2.84;85.20;94036.03;5031240;28;20411;-69
2024/01/04 00:03:42;;;;;;;14.27;9.50;;;;;;;3.07;85.06;94043.97;5030825;28;20037;-69
2024/01/04 00:06:08;;;;;;;13.27;8.68;;;;;;;3.12;84.34;94050.44;5030182;28;20053;-69
2024/01/04 00:08:33;;;;;;;12.75;8.52;;;;;;;2.99;84.75;94041.91;5036329;28;20045;-69
2024/01/04 00:11:02;;;;;;;10.38;7.50;;;;;;;3.06;84.43;94052.56;5033596;28;20056;-69
2024/01/04 00:13:27;;;;;;;9.10;7.32;;;;;;;3.13;83.95;94049.50;5015413;28;20127;-69
2024/01/04 00:15:53;;;;;;;11.02;6.55;;;;;;;3.10;84.15;94033.50;5028375;28;20034;-69
2024/01/04 00:18:18;;;;;;;9.80;5.38;;;;;;;3.08;84.64;94031.03;5029057;28;20490;-69
2024/01/04 00:20:44;;;;;;;8.02;5.00;;;;;;;3.12;85.05;94042.75;5031996;28;20040;-69
2024/01/04 00:23:09;;;;;;;7.88;5.18;;;;;;;3.19;84.03;94032.06;5029997;28;20025;-69
2024/01/04 00:25:34;;;;;;;8.93;5.90;;;;;;;3.00;83.93;94028.13;5051337;28;20037;-69
2024/01/04 00:28:00;;;;;;;9.45;5.53;;;;;;;2.89;85.02;94026.25;5047102;28;20495;-69
2024/01/04 00:30:25;;;;;;;7.13;3.83;;;;;;;3.08;83.39;94028.44;5032735;28;20025;-69
2024/01/04 00:32:51;;;;;;;6.55;3.67;;;;;;;3.01;84.14;94028.94;5032137;28;20697;-69
2024/01/04 00:35:16;;;;;;;5.15;3.42;;;;;;;2.98;82.83;94030.00;5034680;28;20478;-69
2024/01/04 00:37:41;;;;;;;8.65;4.82;;;;;;;2.62;83.39;94015.25;5034060;28;20075;-69
2024/01/04 00:40:08;;;;;;;7.05;4.07;;;;;;;2.64;85.00;94037.28;5032477;28;20476;-69
2024/01/04 00:42:34;;;;;;;5.75;4.45;;;;;;;2.57;85.41;94027.53;5031451;28;20029;-69
2024/01/04 00:44:59;;;;;;;7.50;4.05;;;;;;;2.76;84.30;94035.69;5046786;28;20421;-69
2024/01/04 00:47:24;;;;;;;8.00;5.40;;;;;;;2.71;83.99;94032.59;5052935;28;20086;-69
2024/01/04 00:49:50;;;;;;;9.82;6.22;;;;;;;2.42;84.83;94039.56;5053557;28;20032;-69
2024/01/04 00:52:15;;;;;;;6.47;3.70;;;;;;;2.45;84.95;94036.81;5037425;28;20025;-69
2024/01/04 00:54:41;;;;;;;6.10;4.20;;;;;;;2.31;85.21;94027.44;5032255;28;20036;-69
2024/01/04 00:57:06;;;;;;;7.75;3.95;;;;;;;2.46;85.22;94029.03;5033283;28;20127;-69
2024/01/04 00:59:31;;;;;;;10.40;5.15;;;;;;;2.70;83.40;94041.19;5032194;28;20025;-69
2024/01/04 01:01:57;;;;;;;9.65;6.70;;;;;;;2.62;83.97;94049.41;5047693;28;20036;-69
2024/01/04 01:04:22;;;;;;;9.38;5.93;;;;;;;2.54;84.07;94054.19;5065978;28;20033;-69
2024/01/04 01:06:47;;;;;;;8.73;6.15;;;;;;;2.61;83.26;94057.19;5051256;28;20487;-69
2024/01/04 01:09:14;;;;;;;7.95;4.88;;;;;;;2.43;83.33;94047.19;5041989;28;20421;-69
2024/01/04 01:11:39;;;;;;;8.25;4.70;;;;;;;2.33;83.70;94045.28;5033456;28;20048;-69
2024/01/04 01:14:05;;;;;;;10.07;6.70;;;;;;;2.35;84.73;94048.59;5033084;28;20033;-69
2024/01/04 01:16:30;;;;;;;10.50;5.78;;;;;;;2.17;84.74;94050.53;5048447;28;20400;-69
2024/01/04 01:18:55;;;;;;;13.02;7.57;;;;;;;2.22;85.04;94044.22;5030866;28;20029;-69
2024/01/04 01:21:21;;;;;;;11.02;7.82;;;;;;;2.20;85.65;94047.78;5033149;28;20025;-69
2024/01/04 01:23:46;;;;;;;10.10;7.35;;;;;;;2.20;85.49;94048.63;4999718;28;20048;-69
2024/01/04 01:26:11;;;;;;;10.43;6.75;;;;;;;2.08;85.40;94054.50;5032699;28;20462;-69
2024/01/04 01:28:37;;;;;;;13.40;7.35;;;;;;;2.20;84.03;94063.16;5030205;28;20091;-69
2024/01/04 01:31:02;;;;;;;11.63;7.90;;;;;;;2.12;84.46;94062.84;5032861;28;20502;-69
2024/01/04 01:33:28;;;;;;;11.15;7.88;;;;;;;1.89;85.73;94065.03;5032977;28;20057;-69
2024/01/04 01:35:53;;;;;;;10.80;6.90;;;;;;;2.08;85.15;94059.63;5032173;28;20029;-69
2024/01/04 01:38:19;;;;;;;8.38;6.55;;;;;;;2.04;85.39;94065.06;5032335;28;20052;-69
2024/01/04 01:40:44;;;;;;;11.70;6.00;;;;;;;2.05;85.14;94052.13;5032705;28;20029;-69
2024/01/04 01:43:11;;;;;;;9.52;6.32;;;;;;;2.22;84.79;94059.59;5031466;28;20431;-69
2024/01/04 01:45:36;;;;;;;9.80;7.07;;;;;;;2.11;84.75;94079.94;5031283;28;20029;-69
2024/01/04 01:48:02;;;;;;;11.20;7.95;;;;;;;2.05;85.05;94069.25;5038394;28;20135;-69
2024/01/04 01:50:27;;;;;;;11.77;6.68;;;;;;;2.13;84.85;94059.34;5052198;28;20029;-69
2024/01/04 01:52:53;;;;;;;9.13;5.70;;;;;;;2.07;84.63;94063.13;5050857;28;20033;-69
2024/01/04 01:55:19;;;;;;;8.95;5.82;;;;;;;2.06;85.69;94065.75;5040345;28;20040;-69
2024/01/04 01:57:45;;;;;;;10.27;5.32;;;;;;;1.94;86.66;94054.53;5033062;28;20029;-70
2024/01/04 02:00:11;;;;;;;9.27;5.32;;;;;;;2.25;86.99;94066.28;5014577;28;20522;-68
2024/01/04 02:02:36;;;;;;;8.13;5.53;;;;;;;2.06;87.59;94065.75;5030980;28;20028;-69
2024/01/04 02:05:02;;;;;;;9.38;5.90;;;;;;;2.17;87.24;94048.84;5029680;28;20041;-69
2024/01/04 02:07:28;;;;;;;8.07;5.75;;;;;;;2.00;88.46;94065.22;5032150;28;20053;-69
2024/01/04 02:09:54;;;;;;;8.10;5.50;;;;;;;2.27;88.89;94053.38;5031508;28;20029;-69
2024/01/04 02:12:19;;;;;;;9.82;5.45;;;;;;;2.22;89.13;94064.72;5049186;28;20040;-69
2024/01/04 02:14:44;;;;;;;8.27;5.70;;;;;;;2.39;87.66;94055.97;5032044;28;20037;-69
2024/01/04 02:17:10;;;;;;;13.05;6.97;;;;;;;2.42;88.38;94044.72;5031872;28;20036;-69
2024/01/04 02:19:35;;;;;;;11.40;5.70;;;;;;;2.40;89.07;94049.13;5022667;28;20124;-69
2024/01/04 02:22:02;;;;;;;9.13;5.18;;;;;;;2.44;89.13;94053.94;5042984;28;20028;-69
2024/01/04 02:24:27;;;;;;;7.93;5.07;;;;;;;2.63;88.75;94047.66;5031679;28;20029;-70
2024/01/04 02:26:53;;;;;;;10.75;5.50;;;;;;;2.70;88.04;94054.03;5031833;28;20025;-69
2024/01/04 02:29:18;;;;;;;15.18;9.73;;;;;;;2.68;87.66;94040.50;5014087;28;20026;-69
2024/01/04 02:31:44;;;;;;;10.90;7.00;;;;;;;2.74;88.75;94049.53;5023606;28;20041;-69
2024/01/04 02:34:10;;;;;;;11.32;6.85;;;;;;;2.68;89.44;94051.56;5050226;28;20029;-69
2024/01/04 02:36:35;;;;;;;13.65;9.13;;;;;;;2.83;88.16;94038.69;5051803;28;20051;-69
2024/01/04 02:39:00;;;;;;;13.05;8.38;;;;;;;2.76;88.81;94037.41;5049552;28;20037;-69
2024/01/04 02:41:26;;;;;;;10.25;6.90;;;;;;;2.86;88.17;94017.97;5031877;28;20464;-69
2024/01/04 02:43:51;;;;;;;13.00;6.75;;;;;;;2.67;88.78;94026.00;5030211;28;20087;-69
2024/01/04 02:46:16;;;;;;;12.88;8.75;;;;;;;2.91;88.29;94016.72;5030185;28;20040;-69
2024/01/04 02:48:42;;;;;;;17.92;11.35;;;;;;;2.79;88.86;94020.09;5029278;28;20030;-69
2024/01/04 02:51:08;;;;;;;18.50;12.65;;;;;;;2.95;88.51;94012.22;5030132;28;20056;-69
2024/01/04 02:53:33;;;;;;;15.60;10.52;;;;;;;2.94;88.66;93997.75;5031262;28;20415;-69
2024/01/04 02:55:59;;;;;;;19.63;11.48;;;;;;;3.14;88.10;93994.69;5030047;28;20030;-69
2024/01/04 02:58:26;;;;;;;16.92;10.60;;;;;;;3.18;87.55;93986.81;5030286;28;20034;-69
2024/01/04 03:00:51;;;;;;;23.30;13.02;;;;;;;2.99;88.20;94005.97;5034459;28;20519;-69
2024/01/04 03:03:16;;;;;;;19.67;12.10;;;;;;;3.21;87.24;94005.38;5051032;28;20032;-69
2024/01/04 03:05:42;;;;;;;13.77;9.32;;;;;;;3.13;86.84;93987.09;5050853;28;20045;-69
2024/01/04 03:08:07;;;;;;;13.25;8.65;;;;;;;3.08;87.36;93999.41;5036684;28;20036;-69
2024/01/04 03:10:35;;;;;;;9.93;6.38;;;;;;;3.11;86.92;93989.75;5031385;28;20028;-69
2024/01/04 03:13:00;;;;;;;11.65;7.55;;;;;;;2.82;86.73;93983.19;5029764;28;20049;-69
2024/01/04 03:15:26;;;;;;;10.10;6.45;;;;;;;3.03;85.70;93986.88;5031883;28;20041;-69
2024/01/04 03:17:51;;;;;;;8.15;5.43;;;;;;;2.75;86.56;93976.78;5031034;28;20045;-69
2024/01/04 03:20:17;;;;;;;11.45;6.45;;;;;;;2.80;86.26;93985.84;5013133;28;20484;-69
2024/01/04 03:22:42;;;;;;;6.47;5.03;;;;;;;2.93;86.44;93993.56;5029591;28;20025;-69
2024/01/04 03:25:09;;;;;;;5.20;3.22;;;;;;;2.69;87.95;93948.06;5036043;28;20021;-69
2024/01/04 03:27:35;;;;;;;4.47;3.17;;;;;;;3.13;88.04;93977.66;5046926;28;20081;-69
2024/01/04 03:30:00;;;;;;;5.60;3.63;;;;;;;3.22;87.40;93983.91;5049228;28;20028;-69
2024/01/04 03:32:26;;;;;;;6.40;3.60;;;;;;;3.24;87.55;93964.09;5049439;28;20498;-69
2024/01/04 03:34:51;;;;;;;8.75;5.78;;;;;;;3.22;87.13;93975.38;5027585;28;20032;-70
2024/01/04 03:37:17;;;;;;;11.45;7.20;;;;;;;3.39;85.59;93975.06;5050414;28;20555;-69
2024/01/04 03:39:42;;;;;;;12.65;7.93;;;;;;;3.35;85.74;93976.22;5066087;28;20074;-69
2024/01/04 03:42:07;;;;;;;10.38;7.82;;;;;;;3.23;86.44;93979.59;5034810;28;20060;-69
2024/01/04 03:44:33;;;;;;;13.13;8.73;;;;;;;3.41;85.35;93986.06;5028585;28;20052;-69
2024/01/04 03:46:58;;;;;;;9.80;6.90;;;;;;;3.31;84.69;93974.75;5031057;28;20029;-69
2024/01/04 03:49:24;;;;;;;9.25;6.65;;;;;;;3.31;84.79;93977.31;5031780;28;20034;-69
2024/01/04 03:51:49;;;;;;;14.23;7.25;;;;;;;3.20;84.92;93972.09;5050892;28;20083;-69
2024/01/04 03:54:15;;;;;;;14.70;8.52;;;;;;;3.12;85.64;93959.75;5028154;28;20037;-69
2024/01/04 03:56:40;;;;;;;10.65;7.68;;;;;;;3.17;85.09;93970.56;5030905;28;20033;-69
2024/01/04 03:59:05;;;;;;;8.80;5.30;;;;;;;3.22;85.03;93965.13;5029378;28;20188;-69
2024/01/04 04:01:31;;;;;;;9.15;5.97;;;;;;;3.19;85.08;93978.97;5035107;28;20467;-69
2024/01/04 04:03:56;;;;;;;13.20;8.95;;;;;;;3.29;84.83;93986.91;5030527;28;20040;-69
2024/01/04 04:06:22;;;;;;;14.18;9.13;;;;;;;3.35;84.39;93971.88;5030480;28;20046;-69
2024/01/04 04:08:47;;;;;;;14.05;9.63;;;;;;;3.21;84.04;93955.78;5045662;28;20032;-69
2024/01/04 04:11:16;;;;;;;16.98;9.88;;;;;;;3.34;84.06;93964.28;5037773;28;20034;-69
2024/01/04 04:13:42;;;;;;;48.03;29.58;;;;;;;3.35;83.50;93965.94;5028598;28;20123;-69
2024/01/04 04:16:07;;;;;;;10.75;6.63;;;;;;;3.07;83.91;93961.84;5031410;28;20028;-69
2024/01/04 04:18:33;;;;;;;7.93;6.05;;;;;;;3.24;83.86;93963.28;5020791;28;20036;-69
2024/01/04 04:20:58;;;;;;;8.18;5.55;;;;;;;3.24;84.44;93958.97;5049443;28;20017;-69
2024/01/04 04:23:23;;;;;;;7.82;5.43;;;;;;;3.11;84.88;93958.13;5037397;28;20056;-69
2024/01/04 04:25:49;;;;;;;5.85;2.90;;;;;;;3.21;85.71;93950.66;5030273;28;20037;-69
2024/01/04 04:28:14;;;;;;;6.60;3.75;;;;;;;3.33;85.65;93960.88;5019150;28;20042;-69
2024/01/04 04:30:40;;;;;;;6.60;4.63;;;;;;;3.34;84.24;93975.41;5007713;28;20349;-69
2024/01/04 04:33:05;;;;;;;5.63;4.05;;;;;;;2.81;85.55;93941.28;5021953;28;20488;-69
2024/01/04 04:35:31;;;;;;;5.78;3.75;;;;;;;3.10;85.69;93967.59;5035931;28;20044;-69
2024/01/04 04:37:56;;;;;;;6.95;3.83;;;;;;;3.18;84.63;93968.81;5022860;28;20347;-69
2024/01/04 04:40:21;;;;;;;11.38;7.40;;;;;;;3.18;85.38;93964.50;5030663;28;20040;-69
2024/01/04 04:42:47;;;;;;;16.85;11.48;;;;;;;3.28;83.84;93964.69;5030916;28;20029;-69
2024/01/04 04:45:12;;;;;;;11.82;7.82;;;;;;;3.07;84.62;93969.53;5016825;28;20041;-69
2024/01/04 04:47:38;;;;;;;12.15;8.32;;;;;;;2.94;85.16;93961.84;5022315;28;20071;-69
2024/01/04 04:50:04;;;;;;;8.30;5.90;;;;;;;3.20;83.64;93962.63;5029301;28;20048;-69
2024/01/04 04:52:29;;;;;;;6.65;3.95;;;;;;;3.12;83.48;93946.94;5025389;28;20034;-69
2024/01/04 04:54:55;;;;;;;8.40;5.80;;;;;;;2.74;84.80;93964.91;5036419;28;20098;-69
2024/01/04 04:57:21;;;;;;;9.75;6.30;;;;;;;2.85;85.54;93962.44;5048434;28;20033;-69
2024/01/04 04:59:47;;;;;;;15.50;11.48;;;;;;;2.73;85.51;93955.53;5032326;28;20033;-70
2024/01/04 05:02:12;;;;;;;14.68;10.23;;;;;;;2.44;87.00;93956.53;5017609;28;20449;-69
2024/01/04 05:04:38;;;;;;;11.30;8.30;;;;;;;2.48;87.14;93964.88;5037818;28;20033;-69
2024/01/04 05:07:04;;;;;;;6.03;4.30;;;;;;;2.72;86.20;93952.16;5031066;28;20518;-69
2024/01/04 05:09:29;;;;;;;6.72;4.82;;;;;;;2.49;86.21;93956.25;5013699;28;20030;-69
2024/01/04 05:11:55;;;;;;;9.52;8.07;;;;;;;2.53;87.07;93975.63;5012412;28;20029;-69
2024/01/04 05:14:20;;;;;;;6.75;4.43;;;;;;;2.70;86.41;93969.38;4994545;28;20033;-69
2024/01/04 05:16:45;;;;;;;5.97;4.10;;;;;;;2.53;86.30;93983.31;4993392;28;20041;-69
2024/01/04 05:19:11;;;;;;;4.85;3.70;;;;;;;2.47;86.51;93989.66;5025545;28;20034;-69
2024/01/04 05:21:36;;;;;;;4.55;3.42;;;;;;;2.61;85.26;93990.50;5008558;28;20490;-69
2024/01/04 05:24:02;;;;;;;5.35;3.60;;;;;;;2.57;85.25;93989.91;4994082;28;20030;-69
2024/01/04 05:26:27;;;;;;;4.28;2.83;;;;;;;2.55;85.06;93993.47;5013033;28;20399;-69
2024/01/04 05:28:52;;;;;;;5.13;2.88;;;;;;;2.59;84.48;94008.59;5003250;28;20541;-69
2024/01/04 05:31:21;;;;;;;13.45;8.88;;;;;;;2.71;84.53;94022.34;5031977;28;20095;-69
2024/01/04 05:33:46;;;;;;;16.63;10.30;;;;;;;2.61;84.47;94000.78;5000284;28;20035;-69
2024/01/04 05:36:12;;;;;;;24.38;13.43;;;;;;;2.54;85.31;94020.06;5006005;28;20037;-69
2024/01/04 05:38:37;;;;;;;19.63;12.75;;;;;;;2.46;85.34;94002.59;4996741;28;20109;-69
2024/01/04 05:41:04;;;;;;;17.60;12.20;;;;;;;2.38;86.39;93986.88;5024087;28;20033;-69
2024/01/04 05:43:30;;;;;;;15.70;10.68;;;;;;;2.26;86.32;93978.22;4994947;28;20030;-69
2024/01/04 05:45:56;;;;;;;14.13;9.77;;;;;;;2.41;87.01;93984.09;5020285;28;20034;-69
2024/01/04 05:48:22;;;;;;;27.48;17.45;;;;;;;2.47;86.36;93964.00;5008250;28;20030;-69
2024/01/04 05:50:49;;;;;;;17.83;11.32;;;;;;;2.44;85.96;93963.41;5006426;28;20030;-69
2024/01/04 05:53:14;;;;;;;16.35;10.57;;;;;;;2.24;86.37;93964.69;5012419;28;20309;-69
2024/01/04 05:55:40;;;;;;;16.33;9.93;;;;;;;2.32;86.31;93975.28;5007158;28;20083;-69
2024/01/04 05:58:05;;;;;;;13.13;9.55;;;;;;;2.52;85.12;93979.13;5023036;28;20036;-69
2024/01/04 06:00:31;;;;;;;28.27;17.60;;;;;;;2.47;85.28;93994.78;4998180;28;20021;-69
2024/01/04 06:02:56;;;;;;;26.75;14.63;;;;;;;2.41;86.19;93969.53;5010679;28;20030;-69
2024/01/04 06:05:21;;;;;;;23.23;13.35;;;;;;;2.21;87.02;93973.38;5013324;28;20412;-69
2024/01/04 06:07:47;;;;;;;22.95;14.75;;;;;;;2.35;87.31;93990.44;5032076;28;20029;-69
2024/01/04 06:10:12;;;;;;;29.48;17.55;;;;;;;2.47;86.26;93981.16;5028911;28;20021;-69
2024/01/04 06:12:38;;;;;;;23.95;15.27;;;;;;;2.28;87.79;93970.44;5031970;28;20033;-69
2024/01/04 06:15:03;;;;;;;29.52;18.42;;;;;;;2.23;88.44;93978.44;5034002;28;20418;-69
2024/01/04 06:17:29;;;;;;;69.07;37.45;;;;;;;2.34;87.88;93980.28;5028489;28;20038;-71
2024/01/04 06:19:54;;;;;;;39.72;22.38;;;;;;;2.42;88.66;93996.00;5030444;28;20087;-69
2024/01/04 06:22:20;;;;;;;33.22;19.88;;;;;;;2.37;88.88;94000.63;5030797;28;20435;-69
2024/01/04 06:24:46;;;;;;;16.88;8.38;;;;;;;2.57;87.80;93994.22;5044457;28;20072;-70
2024/01/04 06:27:17;;;;;;;12.35;8.10;;;;;;;2.49;88.41;94004.94;5035501;28;20440;-69
2024/01/04 06:29:44;;;;;;;12.65;7.32;;;;;;;2.74;87.91;94008.50;5028858;28;20517;-69
2024/01/04 06:32:09;;;;;;;6.45;4.53;;;;;;;2.86;86.68;94010.25;5011426;28;20044;-69
2024/01/04 06:34:35;;;;;;;8.73;7.68;;;;;;;2.67;87.26;94006.34;5011444;28;20068;-70
2024/01/04 06:37:00;;;;;;;21.67;13.05;;;;;;;2.81;87.57;94012.28;5029072;28;20017;-70
2024/01/04 06:39:28;;;;;;;115.65;51.67;;;;;;;2.89;86.68;93999.78;5026975;28;20029;-69
2024/01/04 06:41:53;;;;;;;81.75;38.53;;;;;;;2.96;86.81;94006.19;5025097;28;20017;-69
2024/01/04 06:44:19;;;;;;;45.90;22.27;;;;;;;2.86;86.81;93994.88;5027072;28;20033;-69
2024/01/04 06:46:44;;;;;;;40.05;20.35;;;;;;;2.80;87.25;93995.28;5028104;28;20033;-69
2024/01/04 06:49:09;;;;;;;33.45;17.00;;;;;;;3.08;86.35;94000.22;5010025;28;20542;-69
2024/01/04 06:51:35;;;;;;;78.70;33.83;;;;;;;3.21;85.67;93989.16;5028303;28;20462;-69
2024/01/04 06:54:00;;;;;;;59.50;35.30;;;;;;;3.38;85.24;93986.25;5021256;28;20036;-69
2024/01/04 06:56:26;;;;;;;53.85;31.58;;;;;;;3.38;84.98;93996.53;5029515;28;20092;-69
2024/01/04 06:58:52;;;;;;;56.00;34.42;;;;;;;3.45;85.72;93989.22;5028997;28;20038;-70
2024/01/04 07:01:18;;;;;;;49.45;30.13;;;;;;;3.34;86.78;93970.25;5028628;28;20116;-73
2024/01/04 07:03:44;;;;;;;31.65;22.55;;;;;;;3.44;87.00;93985.03;5023144;28;20419;-70
2024/01/04 07:06:09;;;;;;;40.30;27.42;;;;;;;3.70;86.76;93990.94;5029207;28;20060;-70
2024/01/04 07:08:35;;;;;;;36.42;24.77;;;;;;;3.85;86.79;93979.63;5026628;28;20033;-70
2024/01/04 07:11:04;;;;;;;38.97;24.83;;;;;;;3.98;86.62;93993.25;5028283;28;20036;-69
2024/01/04 07:13:29;;;;;;;30.45;21.50;;;;;;;4.16;86.23;93998.03;5029392;28;20542;-70
2024/01/04 07:15:55;;;;;;;33.08;23.33;;;;;;;4.24;86.19;94000.88;5039713;28;20268;-69
2024/01/04 07:18:20;;;;;;;35.83;25.95;;;;;;;4.36;85.13;94005.13;5029657;28;20033;-69
2024/01/04 07:20:45;;;;;;;43.70;29.92;;;;;;;4.41;84.33;94010.78;5029652;28;20040;-70
2024/01/04 07:23:11;;;;;;;34.45;24.48;;;;;;;4.29;84.34;94009.09;5040187;28;20079;-69
2024/01/04 07:25:36;;;;;;;23.58;15.95;;;;;;;4.30;84.36;93997.88;5052372;28;20028;-69
2024/01/04 07:28:03;;;;;;;17.80;13.23;;;;;;;4.51;83.37;94010.91;5050602;28;20025;-69
2024/01/04 07:30:28;;;;;;;17.27;10.93;;;;;;;4.62;83.20;93992.16;5039109;28;20029;-70
2024/01/04 07:32:54;;;;;;;17.73;11.40;;;;;;;4.74;83.19;94013.63;5028463;28;20392;-69
2024/01/04 07:35:23;;;;;;;17.20;11.98;;;;;;;4.96;82.48;94020.56;5029452;28;20040;-69
2024/01/04 07:37:48;;;;;;;15.60;10.70;;;;;;;4.88;83.91;93985.13;5028642;28;20036;-70
2024/01/04 07:40:14;;;;;;;12.57;8.82;;;;;;;4.83;83.73;93990.59;5028905;28;20025;-69
2024/01/04 07:42:39;;;;;;;9.85;6.82;;;;;;;4.99;82.73;93958.59;5037708;28;20052;-69
2024/01/04 07:45:05;;;;;;;12.55;7.43;;;;;;;5.17;82.98;93970.06;5047355;28;20466;-70
2024/01/04 07:47:31;;;;;;;17.70;10.82;;;;;;;5.34;82.08;93961.88;5047276;28;20517;-71
2024/01/04 07:49:56;;;;;;;12.13;7.68;;;;;;;5.43;82.07;93954.41;5048445;28;20418;-69
2024/01/04 07:52:21;;;;;;;13.48;9.27;;;;;;;5.62;81.20;93952.06;5047439;28;20506;-70
2024/01/04 07:54:47;;;;;;;13.80;9.60;;;;;;;5.61;81.53;93937.53;5049011;28;20403;-70
2024/01/04 07:57:13;;;;;;;16.40;9.93;;;;;;;5.80;80.47;93952.41;5050607;28;20032;-70
2024/01/04 07:59:38;;;;;;;11.95;6.95;;;;;;;5.81;82.28;93949.69;5049262;28;20155;-70
2024/01/04 08:02:03;;;;;;;8.43;5.85;;;;;;;5.89;80.58;93956.03;5049057;28;20024;-70
2024/01/04 08:04:29;;;;;;;10.80;7.28;;;;;;;6.02;80.08;93934.34;5041272;28;20121;-70
2024/01/04 08:06:55;;;;;;;15.75;9.98;;;;;;;6.00;80.97;93950.88;5047783;28;20524;-70
2024/01/04 08:09:20;;;;;;;18.75;11.57;;;;;;;6.02;81.19;93936.13;5033569;28;20547;-70
2024/01/04 08:11:46;;;;;;;29.73;18.10;;;;;;;6.13;80.16;93922.34;5044343;28;20040;-69
2024/01/04 08:14:12;;;;;;;34.50;21.00;;;;;;;6.05;80.23;93922.97;5048027;28;20415;-68
2024/01/04 08:16:38;;;;;;;35.20;22.92;;;;;;;5.85;81.96;93913.38;5033228;28;20095;-68
2024/01/04 08:19:03;;;;;;;32.10;21.67;;;;;;;6.13;81.28;93938.66;5034198;28;20417;-68
2024/01/04 08:21:29;;;;;;;42.88;28.45;;;;;;;6.25;80.88;93937.69;5034488;28;20075;-68
2024/01/04 08:23:54;;;;;;;32.47;23.33;;;;;;;6.18;80.24;93936.50;5034332;28;20550;-68
2024/01/04 08:26:20;;;;;;;29.33;20.10;;;;;;;6.14;79.49;93921.44;5035425;28;20087;-67
2024/01/04 08:28:45;;;;;;;27.67;18.73;;;;;;;6.21;78.32;93905.34;5052736;28;20033;-70
2024/01/04 08:31:11;;;;;;;14.02;9.38;;;;;;;6.27;77.27;93911.78;5053741;28;20036;-68
2024/01/04 08:33:36;;;;;;;13.52;9.43;;;;;;;6.32;78.54;93922.50;5053878;28;20025;-68
2024/01/04 08:36:02;;;;;;;23.67;15.27;;;;;;;6.55;78.63;93925.84;5052605;28;20052;-68
2024/01/04 08:38:27;;;;;;;30.80;21.95;;;;;;;6.56;78.81;93919.72;5054050;28;20052;-70
2024/01/04 08:40:53;;;;;;;32.28;21.23;;;;;;;6.46;78.01;93903.34;5052248;28;20067;-68
2024/01/04 08:43:18;;;;;;;26.15;16.98;;;;;;;6.54;77.50;93919.03;5051899;28;20037;-69
2024/01/04 08:45:44;;;;;;;17.30;11.48;;;;;;;6.37;78.36;93897.16;5052897;28;20040;-68
2024/01/04 08:48:09;;;;;;;18.17;12.68;;;;;;;6.52;78.30;93907.19;5039502;28;20045;-68
2024/01/04 08:50:35;;;;;;;18.77;12.10;;;;;;;6.33;78.95;93910.47;5032362;28;20472;-68
2024/01/04 08:53:00;;;;;;;15.15;9.35;;;;;;;6.57;78.15;93895.53;5033531;28;20040;-69
2024/01/04 08:55:25;;;;;;;10.32;5.07;;;;;;;6.80;75.60;93900.59;5032279;28;20088;-68
2024/01/04 08:57:51;;;;;;;15.05;9.80;;;;;;;6.83;76.91;93905.53;5033800;28;20028;-68
2024/01/04 09:00:16;;;;;;;11.70;6.50;;;;;;;7.07;75.66;93897.50;5032180;28;20037;-68
2024/01/04 09:02:43;;;;;;;9.48;6.50;;;;;;;7.22;75.60;93905.75;5033627;28;20057;-68
2024/01/04 09:05:09;;;;;;;7.03;4.38;;;;;;;7.48;73.28;93896.59;5048400;28;20419;-69
2024/01/04 09:07:35;;;;;;;6.60;3.30;;;;;;;7.54;73.02;93893.47;5033177;28;20054;-68
2024/01/04 09:10:00;;;;;;;6.85;4.32;;;;;;;7.39;73.78;93881.88;5033225;28;20033;-68
2024/01/04 09:12:28;;;;;;;15.35;8.98;;;;;;;7.72;72.21;93898.84;5032024;28;20044;-68
2024/01/04 09:14:53;;;;;;;17.90;10.18;;;;;;;7.53;73.82;93891.03;5031926;28;20025;-68
2024/01/04 09:17:19;;;;;;;12.57;7.78;;;;;;;7.77;72.63;93890.69;5031760;28;20033;-69
2024/01/04 09:19:46;;;;;;;7.82;5.10;;;;;;;7.87;72.13;93867.44;5033073;28;20040;-69
2024/01/04 09:22:11;;;;;;;5.80;4.07;;;;;;;7.90;71.94;93877.53;5031671;28;20163;-68
2024/01/04 09:24:37;;;;;;;5.65;3.72;;;;;;;7.85;71.43;93854.63;5032965;28;20053;-69
2024/01/04 09:27:02;;;;;;;7.57;4.15;;;;;;;7.81;70.65;93867.03;5014184;28;20037;-68
2024/01/04 09:29:28;;;;;;;15.68;7.72;;;;;;;7.49;71.89;93862.03;5031677;28;20049;-68
2024/01/04 09:31:55;;;;;;;14.57;8.45;;;;;;;7.48;73.94;93880.28;5033232;28;20036;-69
2024/01/04 09:34:20;;;;;;;15.27;8.60;;;;;;;7.34;74.94;93874.50;5032880;28;20373;-68
2024/01/04 09:36:46;;;;;;;17.23;8.95;;;;;;;7.30;75.38;93880.06;5031447;28;20041;-69
2024/01/04 09:39:17;;;;;;;15.48;8.45;;;;;;;7.32;74.57;93880.75;5014904;28;20029;-68
2024/01/04 09:41:44;;;;;;;13.60;8.02;;;;;;;7.57;73.27;93888.03;5031645;28;20044;-68
2024/01/04 09:44:11;;;;;;;11.32;6.57;;;;;;;7.52;72.87;93858.38;5031366;28;20037;-68
2024/01/04 09:46:37;;;;;;;9.35;5.35;;;;;;;7.55;72.69;93856.34;5031380;28;20041;-68
2024/01/04 09:49:02;;;;;;;5.75;3.80;;;;;;;7.61;71.96;93862.78;5014723;28;20033;-68
2024/01/04 09:51:29;;;;;;;6.32;3.65;;;;;;;7.45;72.32;93850.34;5014860;28;20112;-68
2024/01/04 09:53:54;;;;;;;6.00;2.50;;;;;;;7.38;71.24;93854.38;5014756;28;20120;-69
2024/01/04 09:56:23;;;;;;;3.50;2.28;;;;;;;7.28;70.94;93845.81;5031235;28;20113;-68
2024/01/04 09:58:49;;;;;;;3.50;1.88;;;;;;;7.20;70.71;93814.63;5031137;28;20040;-68
2024/01/04 10:01:23;;;;;;;3.50;2.10;;;;;;;7.28;69.79;93817.38;5031082;28;20388;-68
2024/01/04 10:03:48;;;;;;;2.50;1.70;;;;;;;7.27;71.16;93816.56;5031165;28;20041;-68
2024/01/04 10:06:33;;;;;;;3.75;2.17;;;;;;;7.37;71.35;93826.91;5032023;28;20053;-68
2024/01/04 10:24:25;;;;;;;8.30;4.30;;;;;;;8.90;67.07;93797.78;5149645;27;20381;-66
2024/01/04 10:27:00;;;;;;;7.88;4.95;;;;;;;8.93;65.85;93761.22;5149835;27;20043;-66
2024/01/04 10:29:26;;;;;;;183.55;56.92;;;;;;;8.87;65.84;93769.59;5149688;27;20019;-66
2024/01/04 10:32:10;;;;;;;10.57;4.53;;;;;;;8.71;66.71;93759.81;5149407;27;20556;-66
2024/01/04 10:34:36;;;;;;;5.00;3.22;;;;;;;8.94;65.02;93747.34;5148438;27;20019;-66
2024/01/04 10:37:12;;;;;;;5.63;4.57;;;;;;;8.68;66.17;93749.75;5149845;27;20034;-66
2024/01/04 10:39:38;;;;;;;6.75;3.70;;;;;;;9.03;64.32;93745.66;5148313;27;20023;-66
2024/01/04 10:42:05;;;;;;;6.28;2.75;;;;;;;9.15;64.21;93730.75;5131069;27;20511;-66
2024/01/04 10:44:33;;;;;;;3.83;2.72;;;;;;;9.47;64.42;93738.06;5148129;27;20447;-66
2024/01/04 10:47:02;;;;;;;6.07;4.10;;;;;;;9.73;62.05;93721.78;5148131;27;20035;-66
2024/01/04 10:49:28;;;;;;;3.47;3.08;;;;;;;9.89;63.10;93710.72;5131356;27;20027;-66
2024/01/04 10:51:57;;;;;;;2.83;1.50;;;;;;;10.28;59.70;93709.44;5113571;27;20034;-66
2024/01/04 10:54:33;;;;;;;3.25;1.50;;;;;;;10.37;61.27;93697.31;5148040;27;20491;-67
2024/01/04 10:56:59;;;;;;;3.65;1.20;;;;;;;10.64;59.47;93687.72;5130836;27;20027;-67
2024/01/04 10:59:26;;;;;;;2.22;1.00;;;;;;;11.14;54.52;93685.19;5149081;27;20038;-66
2024/01/04 11:01:52;;;;;;;7.40;3.08;;;;;;;11.39;52.91;93680.88;5130742;27;20525;-66
2024/01/04 11:04:17;;;;;;;2.70;1.55;;;;;;;11.47;54.52;93672.25;5147837;27;20027;-66
2024/01/04 11:06:43;;;;;;;1.95;1.17;;;;;;;11.80;53.16;93678.31;5148892;27;20042;-66
2024/01/04 11:09:08;;;;;;;3.80;2.03;;;;;;;11.90;55.74;93682.59;5147750;27;20031;-66
2024/01/04 11:11:34;;;;;;;2.95;2.10;;;;;;;11.91;54.31;93684.22;5130374;27;20031;-66
2024/01/04 11:14:00;;;;;;;3.33;1.20;;;;;;;11.87;52.89;93680.28;5130480;27;20133;-67
2024/01/04 11:16:49;;;;;;;8.77;4.18;;;;;;;11.36;58.33;93664.75;5147548;27;20019;-66
2024/01/04 11:19:49;;;;;;;14.68;8.65;;;;;;;11.18;59.38;93662.28;5117197;27;20042;-66
2024/01/04 11:22:23;;;;;;;8.40;5.18;;;;;;;11.55;58.70;93640.25;5147455;27;20050;-66
2024/01/04 11:25:00;;;;;;;3.30;1.80;;;;;;;12.00;53.61;93646.78;5136613;27;20439;-66
2024/01/04 11:27:26;;;;;;;3.03;1.40;;;;;;;12.26;54.21;93651.81;5133627;27;20031;-67
2024/01/04 11:29:51;;;;;;;10.10;6.05;;;;;;;12.23;57.56;93652.13;5116410;27;20106;-67
2024/01/04 11:32:16;;;;;;;12.70;6.05;;;;;;;11.78;57.81;93567.56;5116252;27;20046;-65
2024/01/04 11:34:44;;;;;;;3.95;1.80;;;;;;;11.95;54.58;93643.84;5133305;27;20076;-65
2024/01/04 11:37:10;;;;;;;2.58;1.40;;;;;;;12.24;53.83;93640.75;5116177;27;20091;-67
2024/01/04 11:40:00;;;;;;;3.75;1.83;;;;;;;12.44;53.47;93626.38;5116107;27;20042;-67
2024/01/04 11:42:38;;;;;;;4.15;1.85;;;;;;;12.17;54.01;93626.75;5134697;27;20042;-67
2024/01/04 11:45:05;;;;;;;2.70;1.45;;;;;;;12.00;52.08;93615.56;5116988;27;20027;-68